sensor_id;sensor_type;location;lat;lon;timestamp;P1;durP1;ratioP1;P2;durP2;ratioP2
5961;SDS011;3007;50.770;0.250;2023-05-10T00:02:00;6.50;;;4.93;;
5961;SDS011;3007;50.770;0.250;2023-05-10T00:04:27;9.27;;;4.03;;
5961;SDS011;3007;50.770;0.250;2023-05-10T00:06:54;4.40;;;3.40;;
5961;SDS011;3007;50.770;0.250;2023-05-10T00:09:21;4.60;;;3.30;;
5961;SDS011;3007;50.770;0.250;2023-05-10T00:11:47;5.50;;;3.93;;
5961;SDS011;3007;50.770;0.250;2023-05-10T00:14:14;5.97;;;3.23;;
5961;SDS011;3007;50.770;0.250;2023-05-10T00:16:41;4.60;;;2.53;;
5961;SDS011;3007;50.770;0.250;2023-05-10T00:19:09;3.33;;;2.13;;
5961;SDS011;3007;50.770;0.250;2023-05-10T00:21:36;5.07;;;2.10;;
5961;SDS011;3007;50.770;0.250;2023-05-10T00:24:04;4.43;;;1.90;;
5961;SDS011;3007;50.770;0.250;2023-05-10T00:26:31;2.93;;;1.70;;
5961;SDS011;3007;50.770;0.250;2023-05-10T00:28:58;4.63;;;1.80;;
5961;SDS011;3007;50.770;0.250;2023-05-10T00:31:25;4.20;;;1.90;;
5961;SDS011;3007;50.770;0.250;2023-05-10T00:33:51;3.43;;;1.87;;
5961;SDS011;3007;50.770;0.250;2023-05-10T00:36:20;2.57;;;1.40;;
5961;SDS011;3007;50.770;0.250;2023-05-10T00:38:47;1.63;;;1.10;;
5961;SDS011;3007;50.770;0.250;2023-05-10T00:41:13;2.67;;;1.53;;
5961;SDS011;3007;50.770;0.250;2023-05-10T00:43:40;1.30;;;1.13;;
5961;SDS011;3007;50.770;0.250;2023-05-10T00:46:07;1.60;;;1.50;;
5961;SDS011;3007;50.770;0.250;2023-05-10T00:48:34;1.47;;;1.13;;
5961;SDS011;3007;50.770;0.250;2023-05-10T00:51:01;2.93;;;1.07;;
5961;SDS011;3007;50.770;0.250;2023-05-10T00:53:31;2.20;;;1.20;;
5961;SDS011;3007;50.770;0.250;2023-05-10T00:55:58;3.47;;;1.00;;
5961;SDS011;3007;50.770;0.250;2023-05-10T00:58:25;2.50;;;0.97;;
5961;SDS011;3007;50.770;0.250;2023-05-10T01:00:55;1.07;;;0.97;;
5961;SDS011;3007;50.770;0.250;2023-05-10T01:03:24;1.30;;;0.90;;
5961;SDS011;3007;50.770;0.250;2023-05-10T01:05:51;1.37;;;1.00;;
5961;SDS011;3007;50.770;0.250;2023-05-10T01:08:18;1.97;;;0.83;;
5961;SDS011;3007;50.770;0.250;2023-05-10T01:10:47;2.37;;;1.00;;
5961;SDS011;3007;50.770;0.250;2023-05-10T01:13:16;1.50;;;0.97;;
5961;SDS011;3007;50.770;0.250;2023-05-10T01:15:51;1.97;;;1.20;;
5961;SDS011;3007;50.770;0.250;2023-05-10T01:18:18;2.80;;;1.03;;
5961;SDS011;3007;50.770;0.250;2023-05-10T01:20:48;1.40;;;0.90;;
5961;SDS011;3007;50.770;0.250;2023-05-10T01:23:27;1.83;;;0.93;;
5961;SDS011;3007;50.770;0.250;2023-05-10T01:29:13;2.17;;;1.00;;
5961;SDS011;3007;50.770;0.250;2023-05-10T01:32:16;2.33;;;1.20;;
5961;SDS011;3007;50.770;0.250;2023-05-10T01:34:54;3.30;;;1.20;;
5961;SDS011;3007;50.770;0.250;2023-05-10T01:37:31;4.57;;;1.40;;
5961;SDS011;3007;50.770;0.250;2023-05-10T01:40:07;1.50;;;1.37;;
5961;SDS011;3007;50.770;0.250;2023-05-10T01:42:44;2.57;;;1.40;;
5961;SDS011;3007;50.770;0.250;2023-05-10T01:45:17;2.07;;;1.07;;
5961;SDS011;3007;50.770;0.250;2023-05-10T01:47:50;2.63;;;1.20;;
5961;SDS011;3007;50.770;0.250;2023-05-10T01:50:24;2.57;;;1.40;;
5961;SDS011;3007;50.770;0.250;2023-05-10T01:52:56;1.70;;;1.20;;
5961;SDS011;3007;50.770;0.250;2023-05-10T01:55:25;1.90;;;1.33;;
5961;SDS011;3007;50.770;0.250;2023-05-10T01:57:58;2.30;;;1.40;;
5961;SDS011;3007;50.770;0.250;2023-05-10T02:00:28;3.00;;;1.53;;
5961;SDS011;3007;50.770;0.250;2023-05-10T02:02:57;2.17;;;1.70;;
5961;SDS011;3007;50.770;0.250;2023-05-10T02:05:30;4.00;;;1.57;;
5961;SDS011;3007;50.770;0.250;2023-05-10T02:07:59;2.00;;;1.60;;
5961;SDS011;3007;50.770;0.250;2023-05-10T02:10:27;2.00;;;1.80;;
5961;SDS011;3007;50.770;0.250;2023-05-10T02:12:55;1.97;;;1.60;;
5961;SDS011;3007;50.770;0.250;2023-05-10T02:15:25;3.87;;;1.60;;
5961;SDS011;3007;50.770;0.250;2023-05-10T02:17:54;5.87;;;1.70;;
5961;SDS011;3007;50.770;0.250;2023-05-10T02:20:24;1.63;;;1.43;;
5961;SDS011;3007;50.770;0.250;2023-05-10T02:22:52;2.90;;;1.83;;
5961;SDS011;3007;50.770;0.250;2023-05-10T02:25:22;2.60;;;1.67;;
5961;SDS011;3007;50.770;0.250;2023-05-10T02:27:50;3.37;;;1.73;;
5961;SDS011;3007;50.770;0.250;2023-05-10T02:30:20;2.27;;;1.77;;
5961;SDS011;3007;50.770;0.250;2023-05-10T02:32:49;2.67;;;1.80;;
5961;SDS011;3007;50.770;0.250;2023-05-10T02:35:16;4.07;;;2.00;;
5961;SDS011;3007;50.770;0.250;2023-05-10T02:37:46;5.30;;;1.93;;
5961;SDS011;3007;50.770;0.250;2023-05-10T02:40:13;4.97;;;2.10;;
5961;SDS011;3007;50.770;0.250;2023-05-10T02:42:42;2.47;;;2.10;;
5961;SDS011;3007;50.770;0.250;2023-05-10T02:45:11;4.30;;;2.37;;
5961;SDS011;3007;50.770;0.250;2023-05-10T02:47:39;7.03;;;2.77;;
5961;SDS011;3007;50.770;0.250;2023-05-10T02:50:06;5.67;;;2.27;;
5961;SDS011;3007;50.770;0.250;2023-05-10T02:52:37;2.73;;;2.20;;
5961;SDS011;3007;50.770;0.250;2023-05-10T02:55:08;2.43;;;2.23;;
5961;SDS011;3007;50.770;0.250;2023-05-10T02:57:38;4.20;;;2.57;;
5961;SDS011;3007;50.770;0.250;2023-05-10T03:00:09;4.13;;;2.47;;
5961;SDS011;3007;50.770;0.250;2023-05-10T03:02:37;5.17;;;3.10;;
5961;SDS011;3007;50.770;0.250;2023-05-10T03:05:04;3.97;;;2.63;;
5961;SDS011;3007;50.770;0.250;2023-05-10T03:07:31;5.07;;;3.20;;
5961;SDS011;3007;50.770;0.250;2023-05-10T03:10:01;4.80;;;2.90;;
5961;SDS011;3007;50.770;0.250;2023-05-10T03:12:33;5.60;;;3.13;;
5961;SDS011;3007;50.770;0.250;2023-05-10T03:15:13;6.93;;;3.90;;
5961;SDS011;3007;50.770;0.250;2023-05-10T03:17:50;7.63;;;3.93;;
5961;SDS011;3007;50.770;0.250;2023-05-10T03:20:22;8.03;;;3.70;;
5961;SDS011;3007;50.770;0.250;2023-05-10T03:22:53;9.33;;;4.57;;
5961;SDS011;3007;50.770;0.250;2023-05-10T03:25:26;5.70;;;3.73;;
5961;SDS011;3007;50.770;0.250;2023-05-10T03:27:56;7.20;;;4.53;;
5961;SDS011;3007;50.770;0.250;2023-05-10T03:30:23;7.37;;;4.57;;
5961;SDS011;3007;50.770;0.250;2023-05-10T03:32:50;8.43;;;4.90;;
5961;SDS011;3007;50.770;0.250;2023-05-10T03:35:17;8.07;;;4.50;;
5961;SDS011;3007;50.770;0.250;2023-05-10T03:37:44;8.53;;;5.00;;
5961;SDS011;3007;50.770;0.250;2023-05-10T03:40:12;8.77;;;4.83;;
5961;SDS011;3007;50.770;0.250;2023-05-10T03:42:38;8.33;;;4.83;;
5961;SDS011;3007;50.770;0.250;2023-05-10T03:45:08;9.17;;;5.20;;
5961;SDS011;3007;50.770;0.250;2023-05-10T03:47:36;11.03;;;4.93;;
5961;SDS011;3007;50.770;0.250;2023-05-10T03:50:03;8.03;;;4.87;;
5961;SDS011;3007;50.770;0.250;2023-05-10T03:52:30;9.20;;;5.00;;
5961;SDS011;3007;50.770;0.250;2023-05-10T03:54:57;9.77;;;5.63;;
5961;SDS011;3007;50.770;0.250;2023-05-10T03:57:24;9.73;;;5.70;;
5961;SDS011;3007;50.770;0.250;2023-05-10T03:59:51;8.60;;;5.13;;
5961;SDS011;3007;50.770;0.250;2023-05-10T04:02:19;13.23;;;6.37;;
5961;SDS011;3007;50.770;0.250;2023-05-10T04:04:46;11.70;;;6.73;;
5961;SDS011;3007;50.770;0.250;2023-05-10T04:07:13;10.77;;;5.87;;
5961;SDS011;3007;50.770;0.250;2023-05-10T04:09:40;9.77;;;6.20;;
5961;SDS011;3007;50.770;0.250;2023-05-10T04:12:07;11.20;;;5.80;;
5961;SDS011;3007;50.770;0.250;2023-05-10T04:14:34;9.53;;;5.57;;
5961;SDS011;3007;50.770;0.250;2023-05-10T04:17:00;8.60;;;5.73;;
5961;SDS011;3007;50.770;0.250;2023-05-10T04:19:30;12.73;;;6.37;;
5961;SDS011;3007;50.770;0.250;2023-05-10T04:21:57;8.57;;;5.73;;
5961;SDS011;3007;50.770;0.250;2023-05-10T04:24:24;8.63;;;5.97;;
5961;SDS011;3007;50.770;0.250;2023-05-10T04:26:51;9.23;;;5.90;;
5961;SDS011;3007;50.770;0.250;2023-05-10T04:29:18;10.43;;;6.30;;
5961;SDS011;3007;50.770;0.250;2023-05-10T04:31:44;10.67;;;6.23;;
5961;SDS011;3007;50.770;0.250;2023-05-10T04:34:17;9.63;;;6.40;;
5961;SDS011;3007;50.770;0.250;2023-05-10T04:36:55;8.90;;;6.13;;
5961;SDS011;3007;50.770;0.250;2023-05-10T04:39:21;9.63;;;6.23;;
5961;SDS011;3007;50.770;0.250;2023-05-10T04:41:48;11.20;;;6.40;;
5961;SDS011;3007;50.770;0.250;2023-05-10T04:44:15;10.43;;;5.93;;
5961;SDS011;3007;50.770;0.250;2023-05-10T04:46:42;9.90;;;6.43;;
5961;SDS011;3007;50.770;0.250;2023-05-10T04:49:09;8.77;;;5.40;;
5961;SDS011;3007;50.770;0.250;2023-05-10T04:51:36;9.07;;;6.20;;
5961;SDS011;3007;50.770;0.250;2023-05-10T04:54:05;10.00;;;6.23;;
5961;SDS011;3007;50.770;0.250;2023-05-10T04:56:31;10.80;;;7.03;;
5961;SDS011;3007;50.770;0.250;2023-05-10T04:58:58;10.07;;;5.60;;
5961;SDS011;3007;50.770;0.250;2023-05-10T05:01:25;11.07;;;5.07;;
5961;SDS011;3007;50.770;0.250;2023-05-10T05:03:52;9.40;;;6.17;;
5961;SDS011;3007;50.770;0.250;2023-05-10T05:06:19;9.07;;;5.70;;
5961;SDS011;3007;50.770;0.250;2023-05-10T05:08:46;11.40;;;6.43;;
5961;SDS011;3007;50.770;0.250;2023-05-10T05:11:15;9.83;;;6.00;;
5961;SDS011;3007;50.770;0.250;2023-05-10T05:13:43;6.87;;;5.60;;
5961;SDS011;3007;50.770;0.250;2023-05-10T05:16:09;11.13;;;6.33;;
5961;SDS011;3007;50.770;0.250;2023-05-10T05:18:36;13.17;;;6.73;;
5961;SDS011;3007;50.770;0.250;2023-05-10T05:21:12;10.20;;;6.10;;
5961;SDS011;3007;50.770;0.250;2023-05-10T05:23:40;13.80;;;6.20;;
5961;SDS011;3007;50.770;0.250;2023-05-10T05:26:06;9.23;;;5.93;;
5961;SDS011;3007;50.770;0.250;2023-05-10T05:28:35;13.37;;;7.03;;
5961;SDS011;3007;50.770;0.250;2023-05-10T05:31:02;13.67;;;7.50;;
5961;SDS011;3007;50.770;0.250;2023-05-10T05:33:29;11.13;;;6.77;;
5961;SDS011;3007;50.770;0.250;2023-05-10T05:35:56;12.00;;;6.77;;
5961;SDS011;3007;50.770;0.250;2023-05-10T05:38:23;13.50;;;7.10;;
5961;SDS011;3007;50.770;0.250;2023-05-10T05:40:50;11.50;;;7.07;;
5961;SDS011;3007;50.770;0.250;2023-05-10T05:43:17;9.13;;;6.20;;
5961;SDS011;3007;50.770;0.250;2023-05-10T05:45:45;13.43;;;6.73;;
5961;SDS011;3007;50.770;0.250;2023-05-10T05:48:12;10.03;;;6.27;;
5961;SDS011;3007;50.770;0.250;2023-05-10T05:50:39;11.57;;;5.93;;
5961;SDS011;3007;50.770;0.250;2023-05-10T05:53:05;11.27;;;6.33;;
5961;SDS011;3007;50.770;0.250;2023-05-10T05:55:33;9.97;;;6.10;;
5961;SDS011;3007;50.770;0.250;2023-05-10T05:58:00;13.00;;;6.10;;
5961;SDS011;3007;50.770;0.250;2023-05-10T06:00:26;9.83;;;5.70;;
5961;SDS011;3007;50.770;0.250;2023-05-10T06:02:55;11.40;;;5.97;;
5961;SDS011;3007;50.770;0.250;2023-05-10T06:05:22;11.10;;;6.83;;
5961;SDS011;3007;50.770;0.250;2023-05-10T06:07:48;10.80;;;5.40;;
5961;SDS011;3007;50.770;0.250;2023-05-10T06:10:15;8.67;;;6.03;;
5961;SDS011;3007;50.770;0.250;2023-05-10T06:12:42;9.80;;;5.60;;
5961;SDS011;3007;50.770;0.250;2023-05-10T06:15:09;10.57;;;5.73;;
5961;SDS011;3007;50.770;0.250;2023-05-10T06:17:37;9.57;;;6.93;;
5961;SDS011;3007;50.770;0.250;2023-05-10T06:20:06;13.13;;;5.57;;
5961;SDS011;3007;50.770;0.250;2023-05-10T06:22:34;11.20;;;5.90;;
5961;SDS011;3007;50.770;0.250;2023-05-10T06:25:01;11.00;;;5.13;;
5961;SDS011;3007;50.770;0.250;2023-05-10T06:27:28;11.90;;;5.13;;
5961;SDS011;3007;50.770;0.250;2023-05-10T06:29:54;12.83;;;5.10;;
5961;SDS011;3007;50.770;0.250;2023-05-10T06:32:21;6.47;;;4.20;;
5961;SDS011;3007;50.770;0.250;2023-05-10T06:34:48;10.90;;;4.40;;
5961;SDS011;3007;50.770;0.250;2023-05-10T06:37:16;7.10;;;4.13;;
5961;SDS011;3007;50.770;0.250;2023-05-10T06:39:43;7.03;;;4.40;;
5961;SDS011;3007;50.770;0.250;2023-05-10T06:42:10;8.43;;;3.90;;
5961;SDS011;3007;50.770;0.250;2023-05-10T06:44:37;7.97;;;3.83;;
5961;SDS011;3007;50.770;0.250;2023-05-10T06:47:04;5.97;;;3.63;;
5961;SDS011;3007;50.770;0.250;2023-05-10T06:49:31;10.47;;;3.63;;
5961;SDS011;3007;50.770;0.250;2023-05-10T06:51:57;8.00;;;3.47;;
5961;SDS011;3007;50.770;0.250;2023-05-10T06:54:26;7.27;;;3.60;;
5961;SDS011;3007;50.770;0.250;2023-05-10T06:56:53;12.03;;;3.93;;
5961;SDS011;3007;50.770;0.250;2023-05-10T06:59:19;7.47;;;3.37;;
5961;SDS011;3007;50.770;0.250;2023-05-10T07:01:46;6.87;;;3.10;;
5961;SDS011;3007;50.770;0.250;2023-05-10T07:04:13;5.28;;;2.80;;
5961;SDS011;3007;50.770;0.250;2023-05-10T07:06:40;7.82;;;2.75;;
5961;SDS011;3007;50.770;0.250;2023-05-10T07:09:07;7.68;;;3.28;;
5961;SDS011;3007;50.770;0.250;2023-05-10T07:11:35;6.43;;;2.97;;
5961;SDS011;3007;50.770;0.250;2023-05-10T07:14:02;8.63;;;3.05;;
5961;SDS011;3007;50.770;0.250;2023-05-10T07:16:29;5.72;;;2.63;;
5961;SDS011;3007;50.770;0.250;2023-05-10T07:18:56;6.10;;;2.50;;
5961;SDS011;3007;50.770;0.250;2023-05-10T07:21:23;7.68;;;3.00;;
5961;SDS011;3007;50.770;0.250;2023-05-10T07:23:53;5.90;;;2.75;;
5961;SDS011;3007;50.770;0.250;2023-05-10T07:26:20;8.85;;;3.20;;
5961;SDS011;3007;50.770;0.250;2023-05-10T07:28:48;8.48;;;2.85;;
5961;SDS011;3007;50.770;0.250;2023-05-10T07:31:15;5.03;;;3.10;;
5961;SDS011;3007;50.770;0.250;2023-05-10T07:33:42;4.90;;;2.80;;
5961;SDS011;3007;50.770;0.250;2023-05-10T07:36:09;9.43;;;2.83;;
5961;SDS011;3007;50.770;0.250;2023-05-10T07:38:35;8.73;;;2.60;;
5961;SDS011;3007;50.770;0.250;2023-05-10T07:41:02;5.03;;;2.63;;
5961;SDS011;3007;50.770;0.250;2023-05-10T07:43:29;7.80;;;2.45;;
5961;SDS011;3007;50.770;0.250;2023-05-10T07:45:58;9.07;;;2.42;;
5961;SDS011;3007;50.770;0.250;2023-05-10T07:48:24;6.72;;;2.45;;
5961;SDS011;3007;50.770;0.250;2023-05-10T07:50:52;5.25;;;2.33;;
5961;SDS011;3007;50.770;0.250;2023-05-10T07:53:18;4.22;;;2.40;;
5961;SDS011;3007;50.770;0.250;2023-05-10T07:55:49;8.75;;;2.33;;
5961;SDS011;3007;50.770;0.250;2023-05-10T07:58:17;5.38;;;2.97;;
5961;SDS011;3007;50.770;0.250;2023-05-10T08:00:43;7.55;;;2.60;;
5961;SDS011;3007;50.770;0.250;2023-05-10T08:03:12;7.18;;;2.50;;
5961;SDS011;3007;50.770;0.250;2023-05-10T08:05:38;5.90;;;2.70;;
5961;SDS011;3007;50.770;0.250;2023-05-10T08:08:05;7.72;;;2.80;;
5961;SDS011;3007;50.770;0.250;2023-05-10T08:10:32;9.02;;;3.40;;
5961;SDS011;3007;50.770;0.250;2023-05-10T08:12:59;7.03;;;3.42;;
5961;SDS011;3007;50.770;0.250;2023-05-10T08:15:26;9.65;;;3.83;;
5961;SDS011;3007;50.770;0.250;2023-05-10T08:17:53;8.73;;;3.33;;
5961;SDS011;3007;50.770;0.250;2023-05-10T08:20:21;10.38;;;4.53;;
5961;SDS011;3007;50.770;0.250;2023-05-10T08:22:48;8.63;;;3.88;;
5961;SDS011;3007;50.770;0.250;2023-05-10T08:25:15;8.70;;;4.43;;
5961;SDS011;3007;50.770;0.250;2023-05-10T08:27:43;9.02;;;4.70;;
5961;SDS011;3007;50.770;0.250;2023-05-10T08:30:10;9.35;;;4.05;;
5961;SDS011;3007;50.770;0.250;2023-05-10T08:32:38;7.50;;;4.43;;
5961;SDS011;3007;50.770;0.250;2023-05-10T08:35:05;10.75;;;4.60;;
5961;SDS011;3007;50.770;0.250;2023-05-10T08:37:33;9.73;;;4.35;;
5961;SDS011;3007;50.770;0.250;2023-05-10T08:40:00;13.48;;;4.97;;
5961;SDS011;3007;50.770;0.250;2023-05-10T08:42:28;9.95;;;4.22;;
5961;SDS011;3007;50.770;0.250;2023-05-10T08:44:57;12.10;;;4.85;;
5961;SDS011;3007;50.770;0.250;2023-05-10T08:47:25;5.95;;;3.80;;
5961;SDS011;3007;50.770;0.250;2023-05-10T08:49:52;9.25;;;3.83;;
5961;SDS011;3007;50.770;0.250;2023-05-10T08:52:20;9.98;;;4.25;;
5961;SDS011;3007;50.770;0.250;2023-05-10T08:54:51;9.50;;;4.05;;
5961;SDS011;3007;50.770;0.250;2023-05-10T08:57:18;6.38;;;4.07;;
5961;SDS011;3007;50.770;0.250;2023-05-10T08:59:46;7.53;;;4.25;;
5961;SDS011;3007;50.770;0.250;2023-05-10T09:02:13;10.65;;;4.50;;
5961;SDS011;3007;50.770;0.250;2023-05-10T09:04:40;10.50;;;4.53;;
5961;SDS011;3007;50.770;0.250;2023-05-10T09:07:07;8.45;;;3.80;;
5961;SDS011;3007;50.770;0.250;2023-05-10T09:09:34;10.07;;;3.80;;
5961;SDS011;3007;50.770;0.250;2023-05-10T09:12:03;13.52;;;3.83;;
5961;SDS011;3007;50.770;0.250;2023-05-10T09:14:31;9.88;;;4.15;;
5961;SDS011;3007;50.770;0.250;2023-05-10T09:17:01;9.73;;;4.25;;
5961;SDS011;3007;50.770;0.250;2023-05-10T09:19:29;7.60;;;3.75;;
5961;SDS011;3007;50.770;0.250;2023-05-10T09:21:59;9.15;;;3.97;;
5961;SDS011;3007;50.770;0.250;2023-05-10T09:24:28;15.60;;;4.13;;
5961;SDS011;3007;50.770;0.250;2023-05-10T09:26:56;9.93;;;4.47;;
5961;SDS011;3007;50.770;0.250;2023-05-10T09:29:24;11.70;;;4.22;;
5961;SDS011;3007;50.770;0.250;2023-05-10T09:31:51;12.75;;;4.45;;
5961;SDS011;3007;50.770;0.250;2023-05-10T09:34:20;10.82;;;4.13;;
5961;SDS011;3007;50.770;0.250;2023-05-10T09:36:52;13.07;;;4.93;;
5961;SDS011;3007;50.770;0.250;2023-05-10T09:39:21;15.95;;;4.70;;
5961;SDS011;3007;50.770;0.250;2023-05-10T09:41:57;12.55;;;4.50;;
5961;SDS011;3007;50.770;0.250;2023-05-10T09:44:26;8.35;;;4.22;;
5961;SDS011;3007;50.770;0.250;2023-05-10T09:46:53;9.73;;;3.97;;
5961;SDS011;3007;50.770;0.250;2023-05-10T09:49:20;11.13;;;3.95;;
5961;SDS011;3007;50.770;0.250;2023-05-10T09:51:47;9.73;;;3.88;;
5961;SDS011;3007;50.770;0.250;2023-05-10T09:54:28;9.52;;;4.50;;
5961;SDS011;3007;50.770;0.250;2023-05-10T09:56:55;8.75;;;4.20;;
5961;SDS011;3007;50.770;0.250;2023-05-10T09:59:23;8.50;;;4.22;;
5961;SDS011;3007;50.770;0.250;2023-05-10T10:01:53;11.27;;;4.88;;
5961;SDS011;3007;50.770;0.250;2023-05-10T10:04:23;16.80;;;5.32;;
5961;SDS011;3007;50.770;0.250;2023-05-10T10:06:59;13.73;;;4.45;;
5961;SDS011;3007;50.770;0.250;2023-05-10T10:09:27;12.82;;;4.38;;
5961;SDS011;3007;50.770;0.250;2023-05-10T10:11:55;9.77;;;4.07;;
5961;SDS011;3007;50.770;0.250;2023-05-10T10:14:22;11.57;;;4.63;;
5961;SDS011;3007;50.770;0.250;2023-05-10T10:16:49;13.02;;;3.92;;
5961;SDS011;3007;50.770;0.250;2023-05-10T10:19:18;11.23;;;4.20;;
5961;SDS011;3007;50.770;0.250;2023-05-10T10:21:46;11.77;;;3.70;;
5961;SDS011;3007;50.770;0.250;2023-05-10T10:24:13;12.52;;;4.07;;
5961;SDS011;3007;50.770;0.250;2023-05-10T10:26:40;13.90;;;4.27;;
5961;SDS011;3007;50.770;0.250;2023-05-10T10:29:10;11.73;;;4.30;;
5961;SDS011;3007;50.770;0.250;2023-05-10T10:31:47;10.60;;;4.00;;
5961;SDS011;3007;50.770;0.250;2023-05-10T10:34:24;12.55;;;4.50;;
5961;SDS011;3007;50.770;0.250;2023-05-10T10:36:53;15.45;;;5.20;;
5961;SDS011;3007;50.770;0.250;2023-05-10T10:39:21;13.60;;;4.93;;
5961;SDS011;3007;50.770;0.250;2023-05-10T10:41:50;16.85;;;4.82;;
5961;SDS011;3007;50.770;0.250;2023-05-10T10:44:35;13.95;;;4.82;;
5961;SDS011;3007;50.770;0.250;2023-05-10T10:50:05;10.75;;;4.47;;
5961;SDS011;3007;50.770;0.250;2023-05-10T10:52:33;14.15;;;4.55;;
5961;SDS011;3007;50.770;0.250;2023-05-10T10:55:02;9.20;;;4.38;;
5961;SDS011;3007;50.770;0.250;2023-05-10T10:57:31;11.65;;;4.93;;
5961;SDS011;3007;50.770;0.250;2023-05-10T11:00:18;12.13;;;4.30;;
5961;SDS011;3007;50.770;0.250;2023-05-10T11:02:48;14.55;;;5.00;;
5961;SDS011;3007;50.770;0.250;2023-05-10T11:05:24;16.40;;;5.30;;
5961;SDS011;3007;50.770;0.250;2023-05-10T11:08:06;13.13;;;5.80;;
5961;SDS011;3007;50.770;0.250;2023-05-10T11:10:35;10.40;;;4.47;;
5961;SDS011;3007;50.770;0.250;2023-05-10T11:13:07;12.15;;;4.53;;
5961;SDS011;3007;50.770;0.250;2023-05-10T11:15:35;13.40;;;5.10;;
5961;SDS011;3007;50.770;0.250;2023-05-10T11:18:17;11.30;;;4.68;;
5961;SDS011;3007;50.770;0.250;2023-05-10T11:20:48;12.35;;;3.95;;
5961;SDS011;3007;50.770;0.250;2023-05-10T11:23:16;15.65;;;4.90;;
5961;SDS011;3007;50.770;0.250;2023-05-10T11:25:45;12.48;;;4.35;;
5961;SDS011;3007;50.770;0.250;2023-05-10T11:28:12;16.50;;;5.45;;
5961;SDS011;3007;50.770;0.250;2023-05-10T11:30:41;12.60;;;4.82;;
5961;SDS011;3007;50.770;0.250;2023-05-10T11:33:14;15.70;;;4.50;;
5961;SDS011;3007;50.770;0.250;2023-05-10T11:35:42;10.55;;;4.20;;
5961;SDS011;3007;50.770;0.250;2023-05-10T11:38:16;17.85;;;4.53;;
5961;SDS011;3007;50.770;0.250;2023-05-10T11:40:49;10.38;;;3.63;;
5961;SDS011;3007;50.770;0.250;2023-05-10T11:43:19;10.05;;;4.13;;
5961;SDS011;3007;50.770;0.250;2023-05-10T11:45:49;10.88;;;4.22;;
5961;SDS011;3007;50.770;0.250;2023-05-10T11:48:16;15.02;;;3.97;;
5961;SDS011;3007;50.770;0.250;2023-05-10T11:50:47;11.63;;;3.85;;
5961;SDS011;3007;50.770;0.250;2023-05-10T11:53:15;13.23;;;3.70;;
5961;SDS011;3007;50.770;0.250;2023-05-10T11:55:42;11.63;;;3.45;;
5961;SDS011;3007;50.770;0.250;2023-05-10T11:58:10;10.00;;;3.35;;
5961;SDS011;3007;50.770;0.250;2023-05-10T12:00:42;13.57;;;3.58;;
5961;SDS011;3007;50.770;0.250;2023-05-10T12:03:12;12.57;;;3.47;;
5961;SDS011;3007;50.770;0.250;2023-05-10T12:05:39;13.10;;;3.67;;
5961;SDS011;3007;50.770;0.250;2023-05-10T12:08:13;12.63;;;3.63;;
5961;SDS011;3007;50.770;0.250;2023-05-10T12:10:42;14.15;;;3.38;;
5961;SDS011;3007;50.770;0.250;2023-05-10T12:13:15;12.13;;;2.92;;
5961;SDS011;3007;50.770;0.250;2023-05-10T12:15:42;16.73;;;4.00;;
5961;SDS011;3007;50.770;0.250;2023-05-10T12:18:09;15.35;;;3.58;;
5961;SDS011;3007;50.770;0.250;2023-05-10T12:20:36;12.40;;;3.45;;
5961;SDS011;3007;50.770;0.250;2023-05-10T12:23:03;15.65;;;3.40;;
5961;SDS011;3007;50.770;0.250;2023-05-10T12:25:34;13.68;;;3.30;;
5961;SDS011;3007;50.770;0.250;2023-05-10T12:28:04;12.40;;;3.45;;
5961;SDS011;3007;50.770;0.250;2023-05-10T12:30:33;18.70;;;4.03;;
5961;SDS011;3007;50.770;0.250;2023-05-10T12:33:01;14.38;;;3.90;;
5961;SDS011;3007;50.770;0.250;2023-05-10T12:35:31;13.75;;;3.08;;
5961;SDS011;3007;50.770;0.250;2023-05-10T12:37:58;8.18;;;3.17;;
5961;SDS011;3007;50.770;0.250;2023-05-10T12:40:25;11.75;;;2.72;;
5961;SDS011;3007;50.770;0.250;2023-05-10T12:42:52;16.42;;;3.70;;
5961;SDS011;3007;50.770;0.250;2023-05-10T12:45:20;22.42;;;3.65;;
5961;SDS011;3007;50.770;0.250;2023-05-10T12:47:48;19.40;;;3.65;;
5961;SDS011;3007;50.770;0.250;2023-05-10T12:50:15;11.10;;;2.83;;
5961;SDS011;3007;50.770;0.250;2023-05-10T12:52:41;14.20;;;3.25;;
5961;SDS011;3007;50.770;0.250;2023-05-10T12:55:08;16.98;;;3.80;;
5961;SDS011;3007;50.770;0.250;2023-05-10T12:57:35;18.25;;;3.45;;
5961;SDS011;3007;50.770;0.250;2023-05-10T13:00:02;15.73;;;3.33;;
5961;SDS011;3007;50.770;0.250;2023-05-10T13:02:31;10.88;;;3.55;;
5961;SDS011;3007;50.770;0.250;2023-05-10T13:04:58;12.70;;;3.13;;
5961;SDS011;3007;50.770;0.250;2023-05-10T13:07:26;10.75;;;2.80;;
5961;SDS011;3007;50.770;0.250;2023-05-10T13:09:52;15.02;;;3.13;;
5961;SDS011;3007;50.770;0.250;2023-05-10T13:12:19;11.77;;;2.88;;
5961;SDS011;3007;50.770;0.250;2023-05-10T13:14:46;15.20;;;3.00;;
5961;SDS011;3007;50.770;0.250;2023-05-10T13:17:13;11.60;;;2.55;;
5961;SDS011;3007;50.770;0.250;2023-05-10T13:19:41;10.98;;;2.80;;
5961;SDS011;3007;50.770;0.250;2023-05-10T13:22:08;10.00;;;2.60;;
5961;SDS011;3007;50.770;0.250;2023-05-10T13:24:35;12.97;;;3.33;;
5961;SDS011;3007;50.770;0.250;2023-05-10T13:27:02;9.03;;;2.23;;
5961;SDS011;3007;50.770;0.250;2023-05-10T13:29:29;9.20;;;2.72;;
5961;SDS011;3007;50.770;0.250;2023-05-10T13:31:55;10.90;;;2.77;;
5961;SDS011;3007;50.770;0.250;2023-05-10T13:34:22;14.18;;;2.65;;
5961;SDS011;3007;50.770;0.250;2023-05-10T13:36:50;13.83;;;2.70;;
5961;SDS011;3007;50.770;0.250;2023-05-10T13:39:18;15.05;;;2.70;;
5961;SDS011;3007;50.770;0.250;2023-05-10T13:41:46;11.30;;;2.75;;
5961;SDS011;3007;50.770;0.250;2023-05-10T13:44:13;7.40;;;2.00;;
5961;SDS011;3007;50.770;0.250;2023-05-10T13:46:40;10.27;;;2.75;;
5961;SDS011;3007;50.770;0.250;2023-05-10T13:49:08;8.10;;;2.50;;
5961;SDS011;3007;50.770;0.250;2023-05-10T13:51:35;13.38;;;2.58;;
5961;SDS011;3007;50.770;0.250;2023-05-10T13:54:04;9.13;;;1.95;;
5961;SDS011;3007;50.770;0.250;2023-05-10T13:56:30;7.15;;;2.85;;
5961;SDS011;3007;50.770;0.250;2023-05-10T13:58:57;10.57;;;2.22;;
5961;SDS011;3007;50.770;0.250;2023-05-10T14:01:24;12.18;;;2.30;;
5961;SDS011;3007;50.770;0.250;2023-05-10T14:03:51;8.48;;;2.30;;
5961;SDS011;3007;50.770;0.250;2023-05-10T14:06:18;8.98;;;2.35;;
5961;SDS011;3007;50.770;0.250;2023-05-10T14:08:45;8.45;;;2.53;;
5961;SDS011;3007;50.770;0.250;2023-05-10T14:11:13;11.25;;;2.65;;
5961;SDS011;3007;50.770;0.250;2023-05-10T14:13:40;10.50;;;2.30;;
5961;SDS011;3007;50.770;0.250;2023-05-10T14:16:07;13.75;;;2.67;;
5961;SDS011;3007;50.770;0.250;2023-05-10T14:18:34;7.22;;;2.58;;
5961;SDS011;3007;50.770;0.250;2023-05-10T14:21:01;12.30;;;2.55;;
5961;SDS011;3007;50.770;0.250;2023-05-10T14:23:29;10.70;;;2.53;;
5961;SDS011;3007;50.770;0.250;2023-05-10T14:25:55;11.05;;;2.50;;
5961;SDS011;3007;50.770;0.250;2023-05-10T14:28:24;10.43;;;2.88;;
5961;SDS011;3007;50.770;0.250;2023-05-10T14:30:51;14.32;;;2.50;;
5961;SDS011;3007;50.770;0.250;2023-05-10T14:33:18;7.65;;;1.88;;
5961;SDS011;3007;50.770;0.250;2023-05-10T14:35:45;11.43;;;2.47;;
5961;SDS011;3007;50.770;0.250;2023-05-10T14:38:13;9.43;;;2.30;;
5961;SDS011;3007;50.770;0.250;2023-05-10T14:40:40;11.80;;;2.92;;
5961;SDS011;3007;50.770;0.250;2023-05-10T14:43:07;10.90;;;2.58;;
5961;SDS011;3007;50.770;0.250;2023-05-10T14:45:35;9.55;;;2.85;;
5961;SDS011;3007;50.770;0.250;2023-05-10T14:48:02;9.63;;;2.28;;
5961;SDS011;3007;50.770;0.250;2023-05-10T14:50:30;8.55;;;2.20;;
5961;SDS011;3007;50.770;0.250;2023-05-10T14:52:57;13.85;;;2.67;;
5961;SDS011;3007;50.770;0.250;2023-05-10T14:55:24;7.40;;;2.83;;
5961;SDS011;3007;50.770;0.250;2023-05-10T14:57:51;10.75;;;2.65;;
5961;SDS011;3007;50.770;0.250;2023-05-10T15:00:18;8.48;;;2.28;;
5961;SDS011;3007;50.770;0.250;2023-05-10T15:02:47;6.57;;;2.03;;
5961;SDS011;3007;50.770;0.250;2023-05-10T15:05:14;12.63;;;2.75;;
5961;SDS011;3007;50.770;0.250;2023-05-10T15:07:41;8.18;;;2.65;;
5961;SDS011;3007;50.770;0.250;2023-05-10T15:10:09;10.48;;;2.55;;
5961;SDS011;3007;50.770;0.250;2023-05-10T15:12:36;7.20;;;2.22;;
5961;SDS011;3007;50.770;0.250;2023-05-10T15:15:03;5.68;;;2.30;;
5961;SDS011;3007;50.770;0.250;2023-05-10T15:17:31;10.57;;;2.67;;
5961;SDS011;3007;50.770;0.250;2023-05-10T15:19:59;8.82;;;2.03;;
5961;SDS011;3007;50.770;0.250;2023-05-10T15:22:27;8.75;;;2.63;;
5961;SDS011;3007;50.770;0.250;2023-05-10T15:24:56;9.65;;;2.75;;